Air Resources Laboratory banner image
Air Resources Laboratory web site National Oceanic and Atmospheric Administration (NOAA)

vt metar


K1V4 121554Z AUTO M05/M06 A2961 RMK AO1 PRESFR SLP042 P0003 T10501056=
KBTV 121554Z 00000KT 1SM R15/4500V6000FT -SN BR OVC020 M02/M04 A2955 RMK AO2
 SLP012 P0003 T10221044=
KDDH 121554Z AUTO 16017G29KT 6SM -SN OVC033 02/M01 A2951 RMK AO2 PK WND
 17034/1512 UPB48E53SNE48B53 SLP002 P0000 T00221011=
KEFK 121555Z AUTO 00000KT 1 1/4SM -SN BKN013 OVC023 M05/M06 A2960 RMK AO2
 T10551064=
KMPV 121551Z AUTO 17013KT 1/2SM SN FZFG VV009 M03/M04 A2960 RMK AO2 SLP044
 P0003 T10331044=
KMVL 121554Z AUTO 00000KT 1/2SM SN FZFG VV010 M04/M04 A2959 RMK AO2 SLP035
 P0000 T10391044=
KRUT 121556Z AUTO 15012G19KT 1/2SM SN FZFG OVC011 M02/M02 A2954 RMK AO2 PRESFR
 SLP024 P0000 T10171022 FZRANO $=
KVSF 121554Z AUTO 00000KT 1 1/4SM -SN BR FEW011 OVC020 M03/M03 A2962 RMK AO2
 SLP038 P0003 T10331033=